TAF AMD CYQD 251020Z 2510/2519 16005KT P6SM OVC015
TEMPO 2510/2516 2SM -SN BKN006 OVC010
FM251600 30008KT P6SM SCT015 OVC025
TEMPO 2516/2519 4SM -SN OVC015 RMK FCST BASED ON AUTO OBS. NXT FCST BY 251300Z
From batch tds/tafs/production/2023/1/25/h10_m29_tafs.cache.xml
Issued (10 days ago)
Forecasts
2510/2516 16005KT P6SM OVC1500

---
fcst_time_to: '2023-01-25T16:00:00Z'
sky_condition:
- sky_cover: OVC
  cloud_base_ft_agl: '1500'
wind_speed_kt: '5'
fcst_time_from: '2023-01-25T10:00:00Z'
wind_dir_degrees: '160'
visibility_statute_mi: '6.21'

TEMPO 2510/2516 2.0SM BKN600 OVC1000

---
wx_string: "-SN"
fcst_time_to: '2023-01-25T16:00:00Z'
sky_condition:
- - sky_cover: BKN
    cloud_base_ft_agl: '600'
- - sky_cover: OVC
    cloud_base_ft_agl: '1000'
fcst_time_from: '2023-01-25T10:00:00Z'
change_indicator: TEMPO
visibility_statute_mi: '2.0'

FM251600 30008KT P6SM SCT1500 OVC2500

---
fcst_time_to: '2023-01-25T19:00:00Z'
sky_condition:
- - sky_cover: SCT
    cloud_base_ft_agl: '1500'
- - sky_cover: OVC
    cloud_base_ft_agl: '2500'
wind_speed_kt: '8'
fcst_time_from: '2023-01-25T16:00:00Z'
change_indicator: FM
wind_dir_degrees: '300'
visibility_statute_mi: '6.21'

TEMPO 2516/2519 4.0SM OVC1500

---
wx_string: "-SN"
fcst_time_to: '2023-01-25T19:00:00Z'
sky_condition:
- sky_cover: OVC
  cloud_base_ft_agl: '1500'
fcst_time_from: '2023-01-25T16:00:00Z'
change_indicator: TEMPO
visibility_statute_mi: '4.0'

talk